Address 0xbc664ef4202342c41de15c7f614e81c5ff7fd6f0

 
Txn Hash
Block
From
To
Value [Txn Fee]
0x089426e963412eb8e5b059a7bfc85a76e984c767ae35e4b55381d78ed406691581836842021-06-10 19:22:135 days 3 hrs ago0xbc664ef4202342c41de15c7f614e81c5ff7fd6f0OUT 0x9a88fbe91a282685e4711936a112c55c944ffb110 BNB0.00151697
0xc6c6eb8f5e66e7b81c6c4b88127fab4c4c872d3f916f5e3534d6633600c8e77881836672021-06-10 19:21:225 days 3 hrs ago0xbc664ef4202342c41de15c7f614e81c5ff7fd6f0OUT Xpool: XPO Token0 BNB0.00022215
0xef960f71d4ef56c32dda10de72c2934be270426fa892fc434174e1f476050be281836482021-06-10 19:20:255 days 3 hrs ago0xbc664ef4202342c41de15c7f614e81c5ff7fd6f0OUT 0x132ef8a08174ab13b195cc9ebbd283ca75821c9c0 BNB0.001175075
0xcb3d57c552e695c622e2efcf74ff9f9e5a9745dda4ea9b6e167c964e63e918d681836262021-06-10 19:19:195 days 3 hrs ago0xbc664ef4202342c41de15c7f614e81c5ff7fd6f0OUT 0xc4c1e78b14fc7b4da7ae17328bc2e83f7ee9aadf0 BNB0.00023092
0x77b5fa3ab55b6a2fa7d7f29fa1b61bf5a60fb1ca635c91ab87d9d57e9aac5c5f79568402021-06-02 21:49:3213 days 1 hr ago0xbc664ef4202342c41de15c7f614e81c5ff7fd6f0OUT 0x132ef8a08174ab13b195cc9ebbd283ca75821c9c0 BNB0.000706285
0x61da24d66003c105c0a0b63e397a9d7c4b8950f9fdb6ced43444b985085e728f79568292021-06-02 21:48:5913 days 1 hr ago0xbc664ef4202342c41de15c7f614e81c5ff7fd6f0OUT PancakeSwap: Router v20.14669763137817 BNB0.001494845
0xf7758cf19e8cc0f2ee1ff0b25f55899f69aedc7caad89f908416959e35c893fe79568172021-06-02 21:48:2313 days 1 hr ago0xbc664ef4202342c41de15c7f614e81c5ff7fd6f0OUT PancakeSwap: Router v20.147 BNB0.001340715
0xfb90d5bb550fd7c46e2d122a3c6b6ba30c5d9b2175af97d5f4200c088df6600279567882021-06-02 21:46:5613 days 1 hr agoBinance: Hot Wallet 4 IN 0xbc664ef4202342c41de15c7f614e81c5ff7fd6f00.30677492 BNB0.00021
0xb00d79821bb4b63d616cd9ac8ab893d79544298144da8612cc67465bbffcac5979558702021-06-02 21:00:4513 days 1 hr ago0xbc664ef4202342c41de15c7f614e81c5ff7fd6f0OUT 0x132ef8a08174ab13b195cc9ebbd283ca75821c9c0 BNB0.000810815
0x36ad4d43bfbf48e1ec08934d327450a1f286dc994024f463f803749dd638261279558602021-06-02 21:00:1513 days 1 hr ago0xbc664ef4202342c41de15c7f614e81c5ff7fd6f0OUT PancakeSwap V2: XPO0 BNB0.00022221
0x6b8581b90d7a72ef81b3152875523a5f59e885576f91d9d110650d81a8f0f1e579558522021-06-02 20:59:5113 days 1 hr ago0xbc664ef4202342c41de15c7f614e81c5ff7fd6f0OUT PancakeSwap: Router v20.090207147991535 BNB0.001494845
0xf87c454207954e54134bd05e84652a23d6c724c9aff46d85edb38042967fc4be79558282021-06-02 20:58:3913 days 1 hr ago0xbc664ef4202342c41de15c7f614e81c5ff7fd6f0OUT PancakeSwap: Router v20.08 BNB0.001265715
0x99f651988d47d419fedaa04cd5e9ae70ef72f8661c14af236f511aa9b322bfb479557882021-06-02 20:56:3913 days 2 hrs agoBinance: Hot Wallet 2 IN 0xbc664ef4202342c41de15c7f614e81c5ff7fd6f00.17118262 BNB0.00021
0x5d0e880b4872de7703bdca9c93f771d80945d8aaf6dfc377acd55c98abe858d375478522021-05-19 15:26:5527 days 7 hrs ago0xbc664ef4202342c41de15c7f614e81c5ff7fd6f0OUT 0x484cc2a72c90cc7cda50aab00cb4b02509b977310 BNB0.000668196
0x609169e054416e32047c7add02d51ee847ccdb2dc229f238abbbea8bbdaf8f4675474752021-05-19 15:08:0427 days 7 hrs ago0xbc664ef4202342c41de15c7f614e81c5ff7fd6f0OUT 0x484cc2a72c90cc7cda50aab00cb4b02509b977310 BNB0.000631345
0x31f04ffc14082b7ee378ed612cc106a920cb9795af6108d8299babc252ce2dd775467982021-05-19 14:33:5027 days 8 hrs ago0xbc664ef4202342c41de15c7f614e81c5ff7fd6f0OUT PancakeSwap: Router v20.18 BNB0.00160884
0x9f3cafe0bd387023dba913f438fd8530b61344a0d79c59386c683da71567367375467482021-05-19 14:31:0527 days 8 hrs ago0xbc664ef4202342c41de15c7f614e81c5ff7fd6f0OUT PancakeSwap: Router v20.188 BNB0.001853575
0x7d991bf8622ace0e5a53d76e760d54cb6e74b7d9414d48cb97782ed3cc1c6e0375466212021-05-19 14:23:3627 days 8 hrs agoBinance: Hot Wallet 2 IN 0xbc664ef4202342c41de15c7f614e81c5ff7fd6f00.38275247 BNB0.000252
0xc1524a90def4dc97476b0c509bc6cbcb1ad67322bda89b9d44f25c9129a7b63675465972021-05-19 14:22:1427 days 8 hrs ago0xbc664ef4202342c41de15c7f614e81c5ff7fd6f0OUT PancakeSwap: Router v20.182476046323576 BNB0.001571435
0x4824bcad3d8866308ef42fdb8a4349c3400282e1031c8d731fcf87f0d1fb84ed75461662021-05-19 14:00:2927 days 8 hrs ago0xbc664ef4202342c41de15c7f614e81c5ff7fd6f0OUT 0x484cc2a72c90cc7cda50aab00cb4b02509b977310 BNB0.003762335
0x1ef9770fc2ec56086114bda45074b12e0d7c46ca7cfbc733930e61500f517bbb75460952021-05-19 13:56:5627 days 9 hrs ago0xbc664ef4202342c41de15c7f614e81c5ff7fd6f0OUT PancakeSwap: Router v20.18 BNB0.00163367
0x2792b2bdca12496aec837b1c403ccc7818042560888d5ee4452340ceecc96b2175456072021-05-19 13:32:2827 days 9 hrs ago0xbc664ef4202342c41de15c7f614e81c5ff7fd6f0OUT PancakeSwap: Router v20.18 BNB0.000132597603
0x75bb684a15d6ade408cde5c701894b5dec05a4992e80408d6dc61d9357a75fc075447332021-05-19 12:48:1827 days 10 hrs agoBinance: Hot Wallet IN 0xbc664ef4202342c41de15c7f614e81c5ff7fd6f00.3545 BNB0.000231
0x1c99b676f7e8aae948b7aae692bf86f08babb8cf8473e3757a659742bdb42b6175113462021-05-18 8:31:4628 days 14 hrs ago0xbc664ef4202342c41de15c7f614e81c5ff7fd6f0OUT 0x484cc2a72c90cc7cda50aab00cb4b02509b977310 BNB0.000631345
0xd291774baa455d9e29f79114c546b7687f1d0981afb39ba352b659604565d13775113332021-05-18 8:31:0728 days 14 hrs ago0xbc664ef4202342c41de15c7f614e81c5ff7fd6f0OUT PancakeSwap: Router v20.059862890053499 BNB0.001494785
[ Download CSV Export 
Latest 8 internal transactions
Parent Txn Hash Block From To Value
0x31f04ffc14082b7ee378ed612cc106a920cb9795af6108d8299babc252ce2dd775467982021-05-19 14:33:5027 days 8 hrs ago PancakeSwap: Router v20xbc664ef4202342c41de15c7f614e81c5ff7fd6f01 wei
0x534783ba777c2a0d9c47944b8f49bd94e2c12c07fa49d9512824f969371db7d073451702021-05-12 11:08:4934 days 11 hrs ago PancakeSwap: Router v20xbc664ef4202342c41de15c7f614e81c5ff7fd6f01 wei
0x06679f3b8df5a847b84df42a212fa4753aae7ca6537461e88328eb53ead0a45873450432021-05-12 11:02:2834 days 11 hrs ago PancakeSwap: Router0xbc664ef4202342c41de15c7f614e81c5ff7fd6f00.037950267127627408 BNB
0x85a6924e2cc8596151325e8d417e47bdb264c43e60c74a7f313c6755577f4ecf73138542021-05-11 5:48:1335 days 17 hrs ago PancakeSwap: Router v20xbc664ef4202342c41de15c7f614e81c5ff7fd6f00.100481428010374928 BNB
0x1314a1d6bd92717e98fcae22699f10ab5b11ec9e2bb98f5c858299f139c0d06d72918982021-05-10 7:54:2636 days 15 hrs ago PancakeSwap: Router v20xbc664ef4202342c41de15c7f614e81c5ff7fd6f00.086676207218163906 BNB
0x9717f4d6244f90b28263ebd2e8809f424bb25b2c22593c04ffde06e5016cb1b572806742021-05-09 22:17:0137 days 41 mins ago PancakeSwap: Router v20xbc664ef4202342c41de15c7f614e81c5ff7fd6f00.348249178899571968 BNB
0x7f94e2ce4d09a97a544dc640885ff4e065b9637fb2073d9aafdb3f8bd534eeed72805642021-05-09 22:10:5237 days 47 mins ago PancakeSwap: Router v20xbc664ef4202342c41de15c7f614e81c5ff7fd6f00.266875926666012895 BNB
0x15aea60068c2c86fd3088364996c3fc0fb1f251c0ae43c3c838a7505ff18a0a172766662021-05-09 18:50:3137 days 4 hrs ago PancakeSwap: Router v20xbc664ef4202342c41de15c7f614e81c5ff7fd6f00.179424221985404668 BNB
[ Download CSV Export 
Loading

Contract Name:
0 BNB

Compiler Version
0

Optimization Enabled:
0 BNB

Other Settings:
-NA-
Block Transaction Gas Used Reward
Age Block Fee Address BC Fee Address Voting Power Jailed Incoming
Block Uncle Number Difficulty Gas Used Reward
Loading
Loading
Make sure to use the "Vote Down" button for any spammy posts, and the "Vote Up" for interesting conversations.